Time;durP1;ratioP1;P1;durP2;ratioP2;P2;SDS_P1;SDS_P2;PMS_P1;PMS_P2;Temp;Humidity;BMP_temperature;BMP_pressure;BME280_temperature;BME280_humidity;BME280_pressure;Samples;Min_cycle;Max_cycle;Signal;HPM_P1;HPM_P2
2022/01/10 00:01:34;;;;;;;17.33;11.63;;;7.20;99.90;;;;;;638000;224;26590;-81
2022/01/10 00:04:02;;;;;;;24.67;14.23;;;7.50;99.90;;;;;;637259;225;26567;-81
2022/01/10 00:06:30;;;;;;;25.97;13.90;;;7.50;99.90;;;;;;637351;225;26547;-80
2022/01/10 00:08:58;;;;;;;20.90;13.83;;;7.40;99.90;;;;;;637225;224;26620;-81
2022/01/10 00:11:25;;;;;;;23.87;14.07;;;7.10;99.90;;;;;;638801;224;26588;-81
2022/01/10 00:13:52;;;;;;;20.87;14.10;;;7.30;99.90;;;;;;648430;221;26786;-81
2022/01/10 00:16:19;;;;;;;21.87;14.40;;;7.20;99.90;;;;;;649804;221;26530;-81
2022/01/10 00:18:46;;;;;;;24.87;14.90;;;7.40;99.90;;;;;;646293;221;27165;-81
2022/01/10 00:21:15;;;;;;;22.27;13.77;;;7.60;99.90;;;;;;636988;224;26624;-81
2022/01/10 00:23:41;;;;;;;20.77;13.00;;;7.40;99.90;;;;;;636888;225;26818;-81
2022/01/10 00:26:08;;;;;;;18.60;12.60;;;7.50;99.90;;;;;;639328;221;26579;-81
2022/01/10 00:28:35;;;;;;;15.93;10.90;;;7.50;99.90;;;;;;646966;222;26596;-81
2022/01/10 00:31:02;;;;;;;18.97;12.57;;;7.70;99.90;;;;;;646980;222;26583;-81
2022/01/10 00:33:30;;;;;;;17.63;11.83;;;7.50;99.90;;;;;;646979;222;26789;-80
2022/01/10 00:35:58;;;;;;;19.40;12.03;;;6.80;99.90;;;;;;647009;217;26516;-80
2022/01/10 00:38:26;;;;;;;17.63;11.90;;;6.80;99.90;;;;;;646859;222;26606;-80
2022/01/10 00:40:54;;;;;;;16.97;11.67;;;7.10;99.90;;;;;;647004;222;26612;-80
2022/01/10 00:43:31;;;;;;;15.53;10.90;;;7.30;99.90;;;;;;637279;222;26581;-80
2022/01/10 00:45:49;;;;;;;14.37;9.90;;;7.30;99.90;;;;;;640063;222;26584;-80
2022/01/10 00:48:17;;;;;;;18.30;10.80;;;7.30;99.90;;;;;;641312;224;26771;-80
2022/01/10 00:50:44;;;;;;;17.57;10.23;;;7.40;99.90;;;;;;637950;221;26624;-81
2022/01/10 00:53:11;;;;;;;15.90;9.80;;;7.50;99.90;;;;;;642749;222;26805;-81
2022/01/10 00:55:38;;;;;;;18.97;10.13;;;7.20;99.90;;;;;;640287;222;26507;-81
2022/01/10 00:58:05;;;;;;;18.03;10.27;;;7.20;99.90;;;;;;637867;222;26769;-81
2022/01/10 01:00:33;;;;;;;14.17;10.23;;;6.90;99.90;;;;;;637581;224;26547;-80
2022/01/10 01:03:00;;;;;;;21.87;11.93;;;7.00;99.90;;;;;;639386;224;26889;-80
2022/01/10 01:05:27;;;;;;;14.00;10.90;;;7.00;99.90;;;;;;640329;222;26562;-80
2022/01/10 01:07:55;;;;;;;17.57;10.33;;;7.00;99.90;;;;;;643606;222;26819;-80
2022/01/10 01:13:01;;;;;;;14.27;9.77;;;7.10;99.90;;;;;;639395;223;26797;-81
2022/01/10 01:15:29;;;;;;;19.83;10.60;;;6.70;99.90;;;;;;636897;225;26607;-81
2022/01/10 01:20:44;;;;;;;17.40;11.77;;;6.40;99.90;;;;;;628548;224;26856;-81
2022/01/10 01:25:42;;;;;;;20.27;10.20;;;6.60;99.90;;;;;;637077;224;26585;-79
2022/01/10 01:28:09;;;;;;;16.37;10.73;;;6.70;99.90;;;;;;638653;224;26885;-79
2022/01/10 01:30:36;;;;;;;17.17;9.70;;;6.70;99.90;;;;;;640196;224;26591;-80
2022/01/10 01:33:04;;;;;;;14.60;9.60;;;7.00;99.90;;;;;;638771;224;27144;-79
2022/01/10 01:35:34;;;;;;;15.63;10.27;;;7.10;99.90;;;;;;637049;224;26589;-78
2022/01/10 01:37:59;;;;;;;18.30;10.93;;;7.00;99.90;;;;;;636885;225;26827;-79
2022/01/10 01:40:29;;;;;;;17.30;10.83;;;6.90;99.90;;;;;;636964;221;26626;-79
2022/01/10 01:42:53;;;;;;;17.97;9.90;;;6.80;99.90;;;;;;636853;225;26565;-79
2022/01/10 01:45:20;;;;;;;14.70;9.47;;;6.90;99.90;;;;;;637046;224;26582;-79
2022/01/10 01:47:50;;;;;;;15.80;9.27;;;7.40;99.90;;;;;;635198;225;26570;-78
2022/01/10 01:50:16;;;;;;;15.73;9.40;;;7.30;99.90;;;;;;637642;224;26655;-79
2022/01/10 01:52:43;;;;;;;18.53;10.37;;;7.20;99.90;;;;;;640487;224;26547;-79
2022/01/10 01:55:11;;;;;;;18.70;9.43;;;7.20;99.90;;;;;;639188;224;26567;-79
2022/01/10 01:57:39;;;;;;;17.80;10.27;;;7.30;99.90;;;;;;639288;223;26588;-80
2022/01/10 02:00:07;;;;;;;18.23;9.50;;;7.30;99.90;;;;;;638319;225;26548;-79
2022/01/10 02:02:35;;;;;;;16.83;8.97;;;7.20;99.90;;;;;;638074;225;26562;-80
2022/01/10 02:05:02;;;;;;;15.53;9.83;;;6.90;99.90;;;;;;638119;225;26576;-79
2022/01/10 02:07:30;;;;;;;13.03;9.53;;;6.90;99.90;;;;;;637763;224;26582;-79
2022/01/10 02:09:58;;;;;;;20.17;9.90;;;6.80;99.90;;;;;;640673;222;26615;-80
2022/01/10 02:12:25;;;;;;;19.80;9.77;;;6.80;99.90;;;;;;640643;224;26525;-79
2022/01/10 02:14:52;;;;;;;17.63;10.00;;;6.90;99.90;;;;;;639031;219;26500;-79
2022/01/10 02:17:22;;;;;;;15.63;9.53;;;7.20;99.90;;;;;;638608;220;26809;-79
2022/01/10 02:19:54;;;;;;;17.70;10.27;;;7.30;99.90;;;;;;639647;224;26601;-80
2022/01/10 02:22:21;;;;;;;22.13;9.73;;;7.40;99.90;;;;;;639097;221;26838;-79
2022/01/10 02:24:48;;;;;;;18.07;8.77;;;7.40;99.90;;;;;;640657;224;26606;-79
2022/01/10 02:27:16;;;;;;;16.70;10.30;;;7.60;99.90;;;;;;640618;223;26812;-78
2022/01/10 02:29:43;;;;;;;19.80;11.10;;;7.50;99.90;;;;;;637872;224;26861;-78
2022/01/10 02:32:10;;;;;;;27.07;11.17;;;7.10;99.90;;;;;;638951;222;26760;-79
2022/01/10 02:34:37;;;;;;;19.33;11.20;;;7.00;99.90;;;;;;637993;224;26580;-78
2022/01/10 02:37:04;;;;;;;20.13;12.70;;;6.60;99.90;;;;;;640403;224;27186;-79
2022/01/10 02:39:32;;;;;;;18.43;11.33;;;6.70;99.90;;;;;;640372;224;26516;-78
2022/01/10 02:42:00;;;;;;;21.47;11.80;;;6.80;99.90;;;;;;640370;224;26576;-78
2022/01/10 02:44:29;;;;;;;21.33;11.57;;;7.10;99.90;;;;;;640303;224;26501;-78
2022/01/10 02:46:56;;;;;;;25.57;13.80;;;7.10;99.90;;;;;;637571;224;26623;-78
2022/01/10 02:49:24;;;;;;;25.80;12.90;;;7.10;99.90;;;;;;639167;224;26610;-78
2022/01/10 02:51:51;;;;;;;23.73;14.50;;;6.80;99.90;;;;;;637863;224;26565;-79
2022/01/10 02:54:19;;;;;;;21.90;12.80;;;6.60;99.90;;;;;;639685;224;27426;-79
2022/01/10 02:56:46;;;;;;;27.10;14.47;;;6.40;99.90;;;;;;637086;224;26564;-78
2022/01/10 02:59:13;;;;;;;22.33;14.53;;;6.50;99.90;;;;;;637126;224;26833;-78
2022/01/10 03:01:42;;;;;;;25.03;13.97;;;6.90;99.90;;;;;;639623;221;26591;-78
2022/01/10 03:04:09;;;;;;;24.10;14.77;;;7.10;99.90;;;;;;641274;222;26538;-80
2022/01/10 03:06:37;;;;;;;24.47;13.87;;;7.00;99.90;;;;;;643448;221;26582;-78
2022/01/10 03:09:06;;;;;;;24.77;13.70;;;6.60;99.90;;;;;;641672;222;26579;-77
2022/01/10 03:11:33;;;;;;;18.70;12.33;;;6.60;99.90;;;;;;641654;224;26608;-78
2022/01/10 03:14:00;;;;;;;30.67;13.90;;;6.80;99.90;;;;;;641430;224;26597;-78
2022/01/10 03:16:27;;;;;;;26.00;13.27;;;7.10;99.90;;;;;;641472;223;26867;-78
2022/01/10 03:18:54;;;;;;;22.87;12.13;;;7.20;99.90;;;;;;641076;223;26725;-78
2022/01/10 03:21:21;;;;;;;20.27;13.03;;;7.20;99.90;;;;;;639076;224;27106;-78
2022/01/10 03:23:49;;;;;;;26.23;13.93;;;6.70;99.90;;;;;;639410;224;26556;-79
2022/01/10 03:26:16;;;;;;;20.67;13.17;;;6.90;99.90;;;;;;640819;223;26763;-78
2022/01/10 03:28:43;;;;;;;21.13;13.40;;;6.90;99.90;;;;;;645824;222;26629;-78
2022/01/10 03:31:10;;;;;;;19.17;12.57;;;6.90;99.90;;;;;;637216;221;26853;-78
2022/01/10 03:33:37;;;;;;;25.53;12.63;;;6.70;99.90;;;;;;637297;224;26560;-78
2022/01/10 03:36:05;;;;;;;21.40;12.50;;;6.80;99.90;;;;;;638432;224;26868;-79
2022/01/10 03:38:33;;;;;;;17.70;12.17;;;7.40;99.90;;;;;;640677;224;26492;-78
2022/01/10 03:41:00;;;;;;;19.67;11.80;;;7.40;99.90;;;;;;637116;225;26587;-79
2022/01/10 03:43:28;;;;;;;19.10;10.97;;;7.50;99.90;;;;;;637176;224;26886;-79
2022/01/10 03:45:57;;;;;;;18.97;10.70;;;7.70;99.90;;;;;;636962;224;26563;-79
2022/01/10 03:48:22;;;;;;;21.67;10.70;;;7.70;99.90;;;;;;636832;225;26829;-79
2022/01/10 03:50:50;;;;;;;17.90;9.57;;;7.70;99.90;;;;;;627747;226;26620;-78
2022/01/10 03:53:18;;;;;;;19.23;10.70;;;7.50;99.90;;;;;;646966;221;26540;-78
2022/01/10 03:55:46;;;;;;;18.37;9.50;;;7.60;99.90;;;;;;646965;221;26531;-78
2022/01/10 03:58:14;;;;;;;16.27;9.37;;;7.60;99.90;;;;;;646924;221;26528;-78
2022/01/10 04:00:41;;;;;;;22.73;9.57;;;7.60;99.90;;;;;;647018;222;26928;-78
2022/01/10 04:03:08;;;;;;;15.60;9.20;;;7.60;99.90;;;;;;646988;221;26551;-79
2022/01/10 04:05:35;;;;;;;18.77;9.97;;;7.40;99.90;;;;;;647004;222;26536;-79
2022/01/10 04:08:03;;;;;;;17.10;9.37;;;7.30;99.90;;;;;;646976;222;26555;-78
2022/01/10 04:10:31;;;;;;;16.03;8.80;;;7.30;99.90;;;;;;638788;221;26605;-78
2022/01/10 04:12:59;;;;;;;15.43;10.47;;;7.00;99.90;;;;;;636960;224;26569;-78
2022/01/10 04:15:27;;;;;;;16.43;9.90;;;7.00;99.90;;;;;;639924;222;26516;-78
2022/01/10 04:17:56;;;;;;;19.40;10.20;;;7.00;99.90;;;;;;638484;224;26785;-79
2022/01/10 04:20:21;;;;;;;15.27;9.20;;;7.30;99.90;;;;;;637919;223;26612;-78
2022/01/10 04:22:48;;;;;;;18.97;8.80;;;7.00;99.90;;;;;;638431;225;26790;-79
2022/01/10 04:25:15;;;;;;;20.07;9.20;;;6.90;99.90;;;;;;639018;224;26578;-78
2022/01/10 04:27:43;;;;;;;16.80;9.33;;;7.10;99.90;;;;;;641313;224;26900;-79
2022/01/10 04:30:11;;;;;;;20.17;9.93;;;7.20;99.90;;;;;;640955;221;26609;-78
2022/01/10 04:32:39;;;;;;;14.80;9.13;;;7.40;99.90;;;;;;641014;224;26517;-78
2022/01/10 04:35:07;;;;;;;15.80;9.77;;;7.50;99.90;;;;;;641028;224;26574;-78
2022/01/10 04:37:34;;;;;;;15.43;8.90;;;7.50;99.90;;;;;;640938;224;26534;-78
2022/01/10 04:40:02;;;;;;;23.77;8.90;;;7.60;99.90;;;;;;640572;222;26617;-78
2022/01/10 04:42:29;;;;;;;17.90;9.20;;;7.70;99.90;;;;;;640735;223;26796;-79
2022/01/10 04:44:56;;;;;;;20.70;9.37;;;7.70;99.90;;;;;;637327;223;26584;-79
2022/01/10 04:47:24;;;;;;;18.33;9.97;;;7.80;99.90;;;;;;637225;224;26794;-78
2022/01/10 04:52:24;;;;;;;20.27;9.73;;;7.60;99.90;;;;;;638578;224;26585;-78
2022/01/10 04:54:52;;;;;;;21.53;8.93;;;7.30;99.90;;;;;;637385;223;26584;-79
2022/01/10 04:57:20;;;;;;;18.47;9.03;;;7.20;99.90;;;;;;636872;224;26573;-78
2022/01/10 04:59:47;;;;;;;18.40;9.20;;;7.20;99.90;;;;;;636756;224;26602;-78
2022/01/10 05:02:14;;;;;;;13.53;8.30;;;7.30;99.90;;;;;;637820;224;26577;-79
2022/01/10 05:04:41;;;;;;;18.63;10.17;;;7.10;99.90;;;;;;640251;224;26882;-78
2022/01/10 05:07:09;;;;;;;23.73;9.03;;;7.00;99.90;;;;;;639316;224;26559;-78
2022/01/10 05:09:36;;;;;;;17.07;9.53;;;6.90;99.90;;;;;;638284;224;26786;-78
2022/01/10 05:12:03;;;;;;;18.83;10.20;;;6.90;99.90;;;;;;637189;224;26790;-79
2022/01/10 05:14:32;;;;;;;15.57;9.17;;;7.10;99.90;;;;;;636943;226;26573;-78
2022/01/10 05:16:58;;;;;;;15.13;9.77;;;7.20;99.90;;;;;;636811;225;26826;-78
2022/01/10 05:19:25;;;;;;;15.20;9.23;;;7.10;99.90;;;;;;636913;219;26560;-78
2022/01/10 05:21:52;;;;;;;15.37;9.53;;;7.00;99.90;;;;;;636854;224;26586;-78
2022/01/10 05:24:20;;;;;;;19.27;9.00;;;7.30;99.90;;;;;;639535;224;26572;-78
2022/01/10 05:26:48;;;;;;;15.70;9.07;;;7.30;99.90;;;;;;638564;224;26581;-78
2022/01/10 05:29:16;;;;;;;15.80;9.63;;;7.30;99.90;;;;;;640227;224;26576;-79
2022/01/10 05:31:42;;;;;;;17.80;9.47;;;7.20;99.90;;;;;;642657;221;26561;-78
2022/01/10 05:34:09;;;;;;;13.77;9.00;;;6.80;99.90;;;;;;649104;221;26900;-78
2022/01/10 05:36:37;;;;;;;15.47;10.17;;;6.90;99.90;;;;;;648780;221;26487;-78
2022/01/10 05:39:07;;;;;;;19.27;10.90;;;6.80;99.90;;;;;;646395;221;26763;-78
2022/01/10 05:41:31;;;;;;;20.27;10.33;;;7.00;99.90;;;;;;638997;224;26582;-78
2022/01/10 05:43:59;;;;;;;13.73;10.10;;;7.40;99.90;;;;;;638241;225;26484;-78
2022/01/10 05:46:26;;;;;;;17.40;10.03;;;7.10;99.90;;;;;;640901;224;26595;-78
2022/01/10 05:48:59;;;;;;;15.07;9.63;;;7.10;99.90;;;;;;641565;223;26498;-78
2022/01/10 05:51:22;;;;;;;18.47;10.70;;;7.20;99.90;;;;;;640816;224;26598;-79
2022/01/10 05:53:49;;;;;;;21.53;11.33;;;7.20;99.90;;;;;;639142;223;26563;-79
2022/01/10 05:56:17;;;;;;;18.00;10.50;;;6.80;99.90;;;;;;641299;224;26535;-78
2022/01/10 05:58:44;;;;;;;16.47;10.27;;;6.90;99.90;;;;;;638889;224;26977;-79
2022/01/10 06:01:11;;;;;;;16.17;9.97;;;7.20;99.90;;;;;;639342;223;26561;-78
2022/01/10 06:03:38;;;;;;;15.17;8.97;;;7.40;99.90;;;;;;639696;224;26840;-79
2022/01/10 06:06:05;;;;;;;19.10;9.87;;;7.30;99.90;;;;;;639151;224;26527;-79
2022/01/10 06:08:32;;;;;;;21.17;10.00;;;6.80;99.90;;;;;;638762;224;26935;-78
2022/01/10 06:11:00;;;;;;;17.47;10.57;;;6.80;99.90;;;;;;637509;224;26530;-79
2022/01/10 06:13:27;;;;;;;15.63;9.77;;;6.90;99.90;;;;;;638813;224;26559;-78
2022/01/10 06:15:55;;;;;;;14.63;9.30;;;7.10;99.90;;;;;;640938;224;26513;-79
2022/01/10 06:18:23;;;;;;;15.43;9.47;;;7.00;99.90;;;;;;639148;224;26525;-79
2022/01/10 06:20:50;;;;;;;20.43;10.23;;;7.00;99.90;;;;;;637542;225;27016;-79
2022/01/10 06:23:17;;;;;;;17.97;9.07;;;6.80;99.90;;;;;;637532;224;26549;-79
2022/01/10 06:25:44;;;;;;;16.40;9.00;;;6.90;99.90;;;;;;638487;224;26990;-79
2022/01/10 06:28:12;;;;;;;13.33;9.10;;;7.00;99.90;;;;;;638640;224;26524;-79
2022/01/10 06:30:39;;;;;;;18.97;9.57;;;6.90;99.90;;;;;;639611;224;26557;-79
2022/01/10 06:33:07;;;;;;;18.37;9.57;;;7.10;99.90;;;;;;640976;224;26481;-78
2022/01/10 06:35:35;;;;;;;14.07;9.17;;;7.00;99.90;;;;;;639510;224;26537;-79
2022/01/10 06:38:03;;;;;;;13.47;8.87;;;7.00;99.90;;;;;;638237;224;26527;-79
2022/01/10 06:40:30;;;;;;;16.73;8.60;;;7.00;99.90;;;;;;638201;224;26901;-78
2022/01/10 06:42:57;;;;;;;13.53;9.00;;;6.90;99.90;;;;;;643524;220;26477;-78
2022/01/10 06:45:24;;;;;;;20.07;9.60;;;7.10;99.90;;;;;;649111;221;26972;-78
2022/01/10 06:47:51;;;;;;;17.17;8.90;;;7.40;99.90;;;;;;641577;221;26555;-78
2022/01/10 06:50:19;;;;;;;17.83;9.00;;;7.40;99.90;;;;;;640717;222;26834;-78
2022/01/10 06:52:47;;;;;;;14.93;8.97;;;7.40;99.90;;;;;;639461;221;26590;-78
2022/01/10 06:55:15;;;;;;;16.33;9.17;;;7.60;99.90;;;;;;637445;225;26533;-79
2022/01/10 06:57:42;;;;;;;15.03;8.67;;;7.60;99.90;;;;;;640068;224;26558;-78
2022/01/10 07:00:10;;;;;;;14.47;8.67;;;7.60;99.90;;;;;;640872;223;26577;-78
2022/01/10 07:02:37;;;;;;;13.27;8.00;;;7.50;99.90;;;;;;640633;223;26609;-78
2022/01/10 07:05:05;;;;;;;13.43;8.77;;;7.50;99.90;;;;;;640608;224;26853;-79
2022/01/10 07:07:32;;;;;;;16.37;9.03;;;7.50;99.90;;;;;;640603;224;26560;-78
2022/01/10 07:09:59;;;;;;;20.23;9.07;;;7.70;99.90;;;;;;640507;221;26588;-78
2022/01/10 07:12:27;;;;;;;14.00;8.63;;;7.00;99.90;;;;;;640560;223;26580;-79
2022/01/10 07:14:55;;;;;;;18.30;8.90;;;7.10;99.90;;;;;;640695;224;26565;-79
2022/01/10 07:17:22;;;;;;;19.60;9.77;;;7.00;99.90;;;;;;640648;223;26564;-79
2022/01/10 07:19:49;;;;;;;13.30;9.03;;;7.20;99.90;;;;;;640827;224;26553;-79
2022/01/10 07:22:17;;;;;;;16.47;9.57;;;7.20;99.90;;;;;;640339;224;26811;-79
2022/01/10 07:24:44;;;;;;;17.00;9.83;;;7.00;99.90;;;;;;640394;224;26513;-79
2022/01/10 07:27:11;;;;;;;11.23;9.67;;;6.90;99.90;;;;;;640272;224;26806;-79
2022/01/10 07:29:38;;;;;;;16.17;10.53;;;6.70;99.90;;;;;;640292;221;26552;-79
2022/01/10 07:32:06;;;;;;;14.33;9.57;;;6.20;99.90;;;;;;639505;224;26781;-79
2022/01/10 07:34:33;;;;;;;15.13;10.47;;;6.10;99.90;;;;;;637427;224;26851;-78
2022/01/10 07:37:00;;;;;;;14.80;9.97;;;6.30;99.90;;;;;;640258;224;26519;-79
2022/01/10 07:39:27;;;;;;;14.13;8.70;;;6.30;99.90;;;;;;640280;224;26528;-79
2022/01/10 07:41:55;;;;;;;13.23;8.47;;;6.60;99.90;;;;;;640315;224;26559;-78
2022/01/10 07:44:23;;;;;;;15.90;9.17;;;6.70;99.90;;;;;;640357;224;26581;-79
2022/01/10 07:46:50;;;;;;;19.30;10.53;;;6.60;99.90;;;;;;640336;224;27052;-78
2022/01/10 07:49:17;;;;;;;19.30;11.67;;;6.80;99.90;;;;;;639252;224;26568;-79
2022/01/10 07:51:45;;;;;;;17.93;11.27;;;7.00;99.90;;;;;;642763;222;26846;-78
2022/01/10 07:54:12;;;;;;;22.70;10.57;;;7.10;99.90;;;;;;649778;219;26745;-79
2022/01/10 07:56:39;;;;;;;14.10;10.43;;;7.20;99.90;;;;;;647374;220;26806;-78
2022/01/10 07:59:06;;;;;;;17.47;10.93;;;7.40;99.90;;;;;;640017;223;26577;-78
2022/01/10 08:01:33;;;;;;;17.93;10.93;;;7.60;99.90;;;;;;639721;221;26974;-78
2022/01/10 08:04:01;;;;;;;19.10;10.83;;;7.70;99.90;;;;;;640400;223;26572;-78
2022/01/10 08:06:28;;;;;;;17.43;11.73;;;7.40;99.90;;;;;;638224;223;26793;-79
2022/01/10 08:08:55;;;;;;;20.43;11.30;;;7.60;99.90;;;;;;638069;224;26504;-78
2022/01/10 08:11:26;;;;;;;20.97;10.73;;;7.60;99.90;;;;;;639148;221;26825;-78
2022/01/10 08:13:51;;;;;;;24.20;11.87;;;7.60;99.90;;;;;;637185;222;26608;-77
2022/01/10 08:16:19;;;;;;;21.90;12.30;;;7.70;99.90;;;;;;640309;224;26570;-78
2022/01/10 08:18:47;;;;;;;16.17;11.17;;;7.80;99.90;;;;;;638079;221;26533;-82
2022/01/10 08:21:14;;;;;;;16.53;10.73;;;7.80;99.90;;;;;;640390;218;26610;-80
2022/01/10 08:23:41;;;;;;;18.17;10.80;;;7.80;99.90;;;;;;638063;222;26821;-81
2022/01/10 08:26:09;;;;;;;20.77;10.83;;;7.70;99.90;;;;;;637391;224;26793;-81
2022/01/10 08:28:36;;;;;;;21.93;11.43;;;7.60;99.90;;;;;;640674;224;26551;-80
2022/01/10 08:31:03;;;;;;;18.67;12.50;;;7.60;99.90;;;;;;643735;222;26822;-77
2022/01/10 08:33:30;;;;;;;19.80;11.43;;;7.50;99.90;;;;;;636933;224;26568;-78
2022/01/10 08:35:57;;;;;;;16.10;11.23;;;7.30;99.90;;;;;;637775;224;27299;-78
2022/01/10 08:38:25;;;;;;;20.40;11.93;;;7.40;99.90;;;;;;637764;219;26563;-77
2022/01/10 08:40:52;;;;;;;21.33;11.93;;;7.80;99.90;;;;;;639708;224;27297;-78
2022/01/10 08:43:19;;;;;;;17.63;10.77;;;7.80;99.90;;;;;;637007;224;26540;-81
2022/01/10 08:45:46;;;;;;;23.23;11.30;;;7.80;99.90;;;;;;637004;225;27095;-77
2022/01/10 08:48:13;;;;;;;19.97;11.27;;;7.50;99.90;;;;;;637011;224;26565;-77
2022/01/10 08:50:41;;;;;;;17.90;10.30;;;7.20;99.90;;;;;;639951;224;26611;-77
2022/01/10 08:53:08;;;;;;;21.80;11.83;;;6.80;99.90;;;;;;645499;219;26608;-77
2022/01/10 08:55:36;;;;;;;16.93;10.60;;;6.80;99.90;;;;;;648081;217;26491;-77
2022/01/10 08:58:04;;;;;;;21.10;10.33;;;7.10;99.90;;;;;;640477;224;26525;-78
2022/01/10 09:00:32;;;;;;;22.27;11.30;;;6.90;99.90;;;;;;643341;219;26617;-78
2022/01/10 09:03:01;;;;;;;24.97;11.90;;;6.80;99.90;;;;;;647117;222;26551;-78
2022/01/10 09:05:28;;;;;;;19.33;11.90;;;6.50;99.90;;;;;;647105;222;26546;-78
2022/01/10 09:07:56;;;;;;;26.10;12.27;;;6.50;99.90;;;;;;644338;220;26812;-78
2022/01/10 09:10:21;;;;;;;23.57;14.23;;;6.40;99.90;;;;;;638224;221;26817;-77
2022/01/10 09:12:48;;;;;;;26.47;13.47;;;6.60;99.90;;;;;;641925;222;27017;-78
2022/01/10 09:15:16;;;;;;;19.00;13.87;;;7.00;99.90;;;;;;647949;221;26586;-79
2022/01/10 09:17:43;;;;;;;25.07;13.30;;;7.10;99.90;;;;;;647760;222;26748;-79
2022/01/10 09:20:10;;;;;;;21.03;12.17;;;6.70;99.90;;;;;;637747;222;26539;-80
2022/01/10 09:22:37;;;;;;;23.57;13.20;;;6.90;99.90;;;;;;640594;222;26513;-78
2022/01/10 09:25:06;;;;;;;18.87;11.87;;;7.20;99.90;;;;;;640538;222;26590;-77
2022/01/10 09:27:33;;;;;;;21.87;12.63;;;7.20;99.90;;;;;;644211;222;26781;-77
2022/01/10 09:30:00;;;;;;;19.73;11.90;;;7.40;99.90;;;;;;638015;224;26559;-77
2022/01/10 09:32:27;;;;;;;18.53;12.00;;;7.50;99.90;;;;;;640094;224;26803;-77
2022/01/10 09:34:55;;;;;;;17.87;11.97;;;7.50;99.90;;;;;;640700;223;26572;-77
2022/01/10 09:37:22;;;;;;;19.03;12.33;;;7.20;99.90;;;;;;640848;224;27346;-77
2022/01/10 09:39:49;;;;;;;22.50;11.90;;;7.40;99.90;;;;;;640554;223;26584;-78
2022/01/10 09:42:16;;;;;;;19.60;10.93;;;7.40;99.90;;;;;;637316;225;26825;-78
2022/01/10 09:44:44;;;;;;;23.50;11.93;;;7.00;99.90;;;;;;637131;219;26569;-78
2022/01/10 09:47:12;;;;;;;18.70;11.73;;;6.80;99.90;;;;;;637079;219;26549;-78
2022/01/10 09:49:40;;;;;;;18.83;11.03;;;6.80;99.90;;;;;;637314;224;26557;-78
2022/01/10 09:52:08;;;;;;;13.77;10.97;;;6.70;99.90;;;;;;640424;224;26524;-77
2022/01/10 09:54:35;;;;;;;13.23;10.13;;;6.70;99.90;;;;;;640318;224;26524;-78
2022/01/10 09:57:03;;;;;;;15.03;10.57;;;6.60;99.90;;;;;;639888;224;26561;-79
2022/01/10 09:59:30;;;;;;;18.67;11.10;;;6.80;99.90;;;;;;637082;221;26565;-79
2022/01/10 10:01:58;;;;;;;18.07;11.23;;;7.00;99.90;;;;;;637041;225;26572;-78
2022/01/10 10:04:26;;;;;;;20.20;10.47;;;6.90;99.90;;;;;;637022;219;26568;-78
2022/01/10 10:06:54;;;;;;;17.53;10.67;;;6.80;99.90;;;;;;637003;226;26560;-77
2022/01/10 10:09:22;;;;;;;20.40;10.43;;;6.80;99.90;;;;;;636970;224;26585;-78
2022/01/10 10:11:49;;;;;;;19.30;10.83;;;6.70;99.90;;;;;;637063;224;26616;-80
2022/01/10 10:14:17;;;;;;;20.73;10.73;;;6.70;99.90;;;;;;636924;220;26584;-79
2022/01/10 10:16:49;;;;;;;15.97;10.83;;;6.60;99.90;;;;;;640520;224;26773;-79
2022/01/10 10:19:14;;;;;;;16.07;9.77;;;6.70;99.90;;;;;;639586;222;26536;-79
2022/01/10 10:21:41;;;;;;;14.47;10.47;;;6.90;99.90;;;;;;638881;220;26511;-79
2022/01/10 10:24:09;;;;;;;21.90;10.57;;;6.80;99.90;;;;;;638536;225;26562;-79
2022/01/10 10:26:37;;;;;;;17.33;9.83;;;6.70;99.90;;;;;;640106;219;26539;-80
2022/01/10 10:29:04;;;;;;;16.07;10.77;;;6.70;99.90;;;;;;641520;224;26778;-79
2022/01/10 10:31:32;;;;;;;16.40;10.27;;;6.70;99.90;;;;;;640251;223;26552;-79
2022/01/10 10:34:01;;;;;;;15.07;11.13;;;7.20;99.90;;;;;;637419;225;26512;-79
2022/01/10 10:36:29;;;;;;;17.93;10.30;;;7.10;99.90;;;;;;637313;225;26837;-78
2022/01/10 10:38:55;;;;;;;18.90;11.03;;;6.70;99.90;;;;;;637052;225;26552;-80
2022/01/10 10:41:21;;;;;;;19.17;10.97;;;6.50;99.90;;;;;;637142;224;27290;-81
2022/01/10 10:43:51;;;;;;;12.07;10.07;;;6.40;99.90;;;;;;637150;225;26561;-80
2022/01/10 10:46:17;;;;;;;16.33;11.33;;;6.40;99.90;;;;;;637020;225;26608;-79
2022/01/10 10:48:43;;;;;;;18.33;10.83;;;6.40;99.90;;;;;;637087;225;26570;-79
2022/01/10 10:51:11;;;;;;;21.17;11.63;;;6.90;99.90;;;;;;639668;224;26587;-79
2022/01/10 10:53:39;;;;;;;21.03;11.10;;;7.10;99.90;;;;;;640588;224;26576;-81
2022/01/10 10:56:07;;;;;;;17.90;11.70;;;7.20;99.90;;;;;;640533;224;26532;-81
2022/01/10 10:58:34;;;;;;;17.33;11.37;;;7.10;99.90;;;;;;640470;224;26536;-84
2022/01/10 11:01:01;;;;;;;15.93;11.00;;;7.30;99.90;;;;;;638058;224;26579;-79
2022/01/10 11:03:29;;;;;;;17.40;11.20;;;7.20;99.90;;;;;;636895;224;26587;-84
2022/01/10 11:05:59;;;;;;;17.97;11.30;;;7.40;99.90;;;;;;637067;224;26588;-80
2022/01/10 11:08:26;;;;;;;17.73;11.10;;;7.40;99.90;;;;;;636929;225;26900;-80
2022/01/10 11:10:53;;;;;;;17.27;10.77;;;7.80;99.90;;;;;;637534;224;26603;-80
2022/01/10 11:13:23;;;;;;;17.00;11.37;;;8.20;99.90;;;;;;637753;224;26533;-79
2022/01/10 11:15:49;;;;;;;16.70;10.97;;;8.80;99.90;;;;;;637484;225;26488;-80
2022/01/10 11:18:16;;;;;;;16.03;10.80;;;8.80;99.90;;;;;;637495;225;26540;-80
2022/01/10 11:20:44;;;;;;;13.87;9.67;;;9.10;99.90;;;;;;637644;224;26582;-81
2022/01/10 11:23:11;;;;;;;16.23;10.17;;;8.90;99.90;;;;;;640038;224;26845;-80
2022/01/10 11:25:40;;;;;;;14.47;9.17;;;9.10;99.90;;;;;;640250;224;26550;-80
2022/01/10 11:28:06;;;;;;;16.20;10.30;;;9.30;99.90;;;;;;640556;224;26826;-80
2022/01/10 11:30:34;;;;;;;14.10;9.40;;;9.20;99.90;;;;;;641796;221;26624;-81
2022/01/10 11:33:05;;;;;;;13.77;10.30;;;8.90;99.90;;;;;;641705;223;26516;-81
2022/01/10 11:35:36;;;;;;;13.97;7.90;;;9.30;99.90;;;;;;641447;223;26555;-80
2022/01/10 11:38:19;;;;;;;11.17;7.67;;;9.00;99.90;;;;;;641220;222;26572;-81
2022/01/10 11:40:47;;;;;;;10.40;7.67;;;9.00;99.90;;;;;;636819;224;26628;-80
2022/01/10 11:43:34;;;;;;;11.40;8.00;;;9.50;99.90;;;;;;641165;223;26525;-80
2022/01/10 11:46:08;;;;;;;12.60;6.60;;;9.20;99.90;;;;;;639185;220;26556;-80
2022/01/10 11:48:41;;;;;;;7.80;6.50;;;9.10;99.90;;;;;;637110;225;26640;-80
2022/01/10 11:51:13;;;;;;;9.57;6.33;;;9.00;99.90;;;;;;639665;221;27449;-80
2022/01/10 11:53:49;;;;;;;7.70;6.07;;;8.80;99.90;;;;;;637780;223;26596;-79
2022/01/10 11:56:23;;;;;;;12.77;7.50;;;8.20;99.90;;;;;;640688;223;26564;-79
2022/01/10 11:59:01;;;;;;;7.60;6.57;;;8.10;99.90;;;;;;646325;220;26576;-81
2022/01/10 12:01:32;;;;;;;11.43;6.53;;;8.90;99.90;;;;;;642280;222;26586;-80
2022/01/10 12:03:59;;;;;;;10.07;6.30;;;8.90;99.90;;;;;;647488;222;26831;-80
2022/01/10 12:06:26;;;;;;;8.07;5.43;;;9.10;99.90;;;;;;647113;222;26567;-80
2022/01/10 12:08:54;;;;;;;9.53;5.57;;;9.10;99.90;;;;;;647121;222;26829;-80
2022/01/10 12:11:24;;;;;;;7.47;5.50;;;9.30;99.90;;;;;;647130;222;26609;-80
2022/01/10 12:13:52;;;;;;;6.53;5.87;;;9.30;99.90;;;;;;647156;222;27259;-81
2022/01/10 12:16:18;;;;;;;11.10;6.17;;;9.50;99.90;;;;;;647030;222;26623;-80
2022/01/10 12:18:46;;;;;;;6.47;5.43;;;9.10;99.90;;;;;;647159;218;26592;-80
2022/01/10 12:21:13;;;;;;;5.27;4.63;;;9.10;99.90;;;;;;647183;222;27238;-79
2022/01/10 12:23:41;;;;;;;9.30;5.47;;;8.90;99.90;;;;;;647327;221;26555;-80
2022/01/10 12:26:08;;;;;;;5.53;4.63;;;9.10;99.90;;;;;;650129;221;26766;-79
2022/01/10 12:28:36;;;;;;;7.83;4.77;;;8.60;99.90;;;;;;649935;221;26513;-79
2022/01/10 12:31:05;;;;;;;6.40;5.03;;;8.60;99.90;;;;;;645941;221;26611;-79
2022/01/10 12:33:32;;;;;;;4.80;4.40;;;8.60;99.90;;;;;;637040;225;26583;-80
2022/01/10 12:36:02;;;;;;;6.97;5.27;;;8.50;99.90;;;;;;637117;219;26788;-80
2022/01/10 12:38:26;;;;;;;5.13;4.73;;;8.10;99.90;;;;;;636928;225;26556;-80
2022/01/10 12:40:53;;;;;;;7.97;5.53;;;8.20;99.90;;;;;;637712;223;26824;-81
2022/01/10 12:43:21;;;;;;;5.73;5.13;;;8.70;99.90;;;;;;638595;223;26559;-80
2022/01/10 12:45:49;;;;;;;6.83;5.90;;;8.90;99.90;;;;;;638220;223;26549;-80
2022/01/10 12:48:16;;;;;;;7.00;6.03;;;8.80;99.90;;;;;;637911;225;26557;-81
2022/01/10 12:50:44;;;;;;;7.77;5.73;;;9.00;99.90;;;;;;637682;222;26570;-81
2022/01/10 12:53:11;;;;;;;8.93;5.33;;;9.00;99.90;;;;;;647572;222;26909;-81
2022/01/10 12:55:38;;;;;;;5.57;5.07;;;9.00;99.90;;;;;;647725;222;26571;-81